Saturday, November 18, 2017, 6:56 AM EST
Back to Local

KWRI, Mcguire Air Force Base

Location: Trenton, NJ, United States Lat: 40.017
Local Time: 6:56 AM EST (11:56 GMT) Lon: -74.6
Time Zone: US/Eastern Elev: 134 ft

Show me the last for .
Show Decoded

2017-11-18 05:56 METAR KWRI 181056Z AUTO 00000KT 10SM CLR M03/M05 A2998 RMK AO2 SLP153 T10261046
                 $ =
2017-11-18 04:56 METAR KWRI 180956Z AUTO 00000KT 10SM CLR M04/M05 A3000 RMK AO2 SLP160 T10361052
                 $ =
2017-11-18 03:56 METAR KWRI 180856Z AUTO 00000KT 10SM CLR M04/M05 A3000 RMK AO2 SLP160 T10371053
                 57013 $ =
2017-11-18 02:56 METAR KWRI 180756Z AUTO 00000KT 10SM CLR M03/M05 A3001 RMK AO2 SLP163 T10311050
                 $ =
2017-11-18 01:56 METAR KWRI 180656Z AUTO 00000KT 10SM FEW150 M02/M05 A3002 RMK AO2 SLP166
                 T10191047 $ =
2017-11-18 00:56 METAR KWRI 180556Z AUTO 00000KT 10SM CLR M02/M05 A3003 RMK AO2 SLP170 T10231051
                 10047 21025 57015 $ =
2017-11-17 23:56 METAR KWRI 180456Z AUTO 00000KT 10SM CLR M02/M05 A3005 RMK AO2 SLP177 T10161046
                 400971024 $ =
2017-11-17 22:56 METAR KWRI 180356Z AUTO 00000KT 10SM CLR M01/M04 A3007 RMK AO2 SLP183 T10141041
                 $ =
2017-11-17 21:56 METAR KWRI 180256Z AUTO 27005KT 10SM CLR 00/M04 A3008 RMK AO2 SLP187 T00021039
                 53000 $ =
2017-11-17 20:56 METAR KWRI 180156Z AUTO 27004KT 10SM CLR 02/M05 A3009 RMK AO2 SLP190 T00211053 $
                 =
2017-11-17 19:56 METAR KWRI 180056Z AUTO 29004KT 10SM CLR 04/M05 A3008 RMK AO2 SLP187 T00411054 $
                 =
2017-11-17 18:56 METAR KWRI 172356Z AUTO 32006KT 10SM CLR 04/M05 A3008 RMK AO2 SLP187 T00411046
                 10097 20040 50003 $ =
2017-11-17 17:56 METAR KWRI 172256Z AUTO 26003KT 10SM CLR 05/M05 A3008 RMK AO2 SLP187 T00491052 $
                 =
2017-11-17 16:56 METAR KWRI 172156Z AUTO 33005KT 10SM CLR 06/M05 A3008 RMK AO2 SLP187 T00601050 $
                 =
2017-11-17 15:56 METAR KWRI 172056Z AUTO 32007G14KT 10SM CLR 09/M06 A3007 RMK AO2 SLP183
                 T00861056 55003 $ =
2017-11-17 14:56 METAR KWRI 171956Z AUTO 31012G18KT 10SM CLR 09/M05 A3005 RMK AO2 SLP176
                 T00941049 $ =
2017-11-17 13:56 METAR KWRI 171856Z AUTO 32016G21KT 10SM CLR 10/M04 A3005 RMK AO2 SLP176
                 T00951045 $ =
2017-11-17 12:56 METAR KWRI 171756Z AUTO 31013G22KT 10SM CLR 09/M05 A3008 RMK AO2 SLP186
                 T00891050 10089 20043 57011 $ =
2017-11-17 11:56 METAR KWRI 171656Z AUTO 32011G21KT 10SM CLR 08/M04 A3008 RMK AO2 PK WND 33031/09
                 SLP186 T00821040 $ =
2017-11-17 10:56 METAR KWRI 171556Z AUTO 31013G17KT 10SM CLR 08/M04 A3009 RMK AO2 SLP190
                 T00751037 $ =
2017-11-17 09:56 METAR KWRI 171456Z AUTO 31010G18KT 10SM CLR 07/M03 A3011 RMK AO2 PK WND
                 32027/1359 SLP197 T00701033 52023 $ =
2017-11-17 08:56 METAR KWRI 171356Z AUTO 33016G21KT 10SM CLR 06/M03 A3008 RMK AO2 PK WND 31026/01
                 SLP186 T00601031 $ =
2017-11-17 07:56 METAR KWRI 171256Z AUTO 31012KT 10SM CLR 05/M03 A3008 RMK AO2 SLP186 T00511032 $
                 =

Support USWX by starting your Amazon purchase here.